createdAt,value
2018-03-02T00:01:32.515Z,16.80
2018-03-02T00:04:00.034Z,16.97
2018-03-02T00:06:27.566Z,17.37
2018-03-02T00:08:55.142Z,17.43
2018-03-02T00:11:22.728Z,16.83
2018-03-02T00:13:50.290Z,17.27
2018-03-02T00:16:17.826Z,20.00
2018-03-02T00:18:45.346Z,17.60
2018-03-02T00:21:12.888Z,16.63
2018-03-02T00:23:40.543Z,17.97
2018-03-02T00:26:08.108Z,19.13
2018-03-02T00:28:35.656Z,20.07
2018-03-02T00:31:03.186Z,18.27
2018-03-02T00:33:30.737Z,18.50
2018-03-02T00:35:58.237Z,15.27
2018-03-02T00:38:25.872Z,20.10
2018-03-02T00:40:53.479Z,16.33
2018-03-02T00:43:21.183Z,18.63
2018-03-02T00:45:48.711Z,17.13
2018-03-02T00:48:17.160Z,17.13
2018-03-02T00:50:44.665Z,17.67
2018-03-02T00:53:12.195Z,16.47
2018-03-02T00:55:39.773Z,16.50
2018-03-02T00:58:07.311Z,19.73
2018-03-02T01:00:34.850Z,12.80
2018-03-02T01:03:02.383Z,17.13
2018-03-02T01:05:29.886Z,18.60
2018-03-02T01:07:57.413Z,19.80
2018-03-02T01:10:24.972Z,18.97
2018-03-02T01:12:52.471Z,19.17
2018-03-02T01:15:20.016Z,18.33
2018-03-02T01:17:47.568Z,19.20
2018-03-02T01:20:15.104Z,20.70
2018-03-02T01:22:42.663Z,18.97
2018-03-02T01:25:10.154Z,19.97
2018-03-02T01:27:37.659Z,20.03
2018-03-02T01:30:05.253Z,17.60
2018-03-02T01:32:32.756Z,15.00
2018-03-02T01:35:00.429Z,20.10
2018-03-02T01:37:27.998Z,17.40
2018-03-02T01:39:55.542Z,13.13
2018-03-02T01:42:23.063Z,19.97
2018-03-02T01:44:50.601Z,19.30
2018-03-02T01:47:18.159Z,18.83
2018-03-02T01:49:45.735Z,17.23
2018-03-02T01:52:13.263Z,13.67
2018-03-02T01:54:40.790Z,18.80
2018-03-02T01:57:08.302Z,19.53
2018-03-02T01:59:35.820Z,18.60
2018-03-02T02:02:03.495Z,20.10
2018-03-02T02:04:31.017Z,20.87
2018-03-02T02:06:58.566Z,18.43
2018-03-02T02:09:26.063Z,20.07
2018-03-02T02:11:53.829Z,19.37
2018-03-02T02:14:21.346Z,19.40
2018-03-02T02:16:48.897Z,20.83
2018-03-02T02:19:16.525Z,18.90
2018-03-02T02:21:44.044Z,21.37
2018-03-02T02:24:11.621Z,23.37
2018-03-02T02:26:39.161Z,19.13
2018-03-02T02:29:06.720Z,15.87
2018-03-02T02:31:34.218Z,19.57
2018-03-02T02:34:01.744Z,19.90
2018-03-02T02:36:29.314Z,20.30
2018-03-02T02:38:56.954Z,18.70
2018-03-02T02:41:24.446Z,20.33
2018-03-02T02:43:51.960Z,20.83
2018-03-02T02:46:19.494Z,20.37
2018-03-02T02:48:47.104Z,19.47
2018-03-02T02:51:14.641Z,20.63
2018-03-02T02:53:42.226Z,14.97
2018-03-02T02:56:09.757Z,20.80
2018-03-02T02:58:37.281Z,19.37
2018-03-02T03:01:04.793Z,20.23
2018-03-02T03:03:32.340Z,16.77
2018-03-02T03:05:59.842Z,19.97
2018-03-02T03:08:28.271Z,21.07
2018-03-02T03:10:55.784Z,17.20
2018-03-02T03:13:23.374Z,20.50
2018-03-02T03:15:51.010Z,22.30
2018-03-02T03:18:18.670Z,20.93
2018-03-02T03:20:46.145Z,15.67
2018-03-02T03:23:13.823Z,21.47
2018-03-02T03:25:41.347Z,21.10
2018-03-02T03:28:08.952Z,25.40
2018-03-02T03:30:36.475Z,19.87
2018-03-02T03:33:04.090Z,15.43
2018-03-02T03:35:32.626Z,21.33
2018-03-02T03:38:00.291Z,20.03
2018-03-02T03:40:27.830Z,21.83
2018-03-02T03:42:55.397Z,20.43
2018-03-02T03:45:22.916Z,21.53
2018-03-02T03:47:50.434Z,20.40
2018-03-02T03:50:17.955Z,21.03
2018-03-02T03:52:45.497Z,21.20
2018-03-02T03:55:13.007Z,22.83
2018-03-02T03:57:40.525Z,22.20
2018-03-02T04:00:08.026Z,21.50
2018-03-02T04:02:35.543Z,24.37
2018-03-02T04:05:03.064Z,22.60
2018-03-02T04:07:30.603Z,22.00
2018-03-02T04:09:58.107Z,15.23
2018-03-02T04:12:25.637Z,16.67
2018-03-02T04:14:53.262Z,22.07
2018-03-02T04:17:20.792Z,21.60
2018-03-02T04:19:48.318Z,22.50
2018-03-02T04:22:15.857Z,22.67
2018-03-02T04:24:43.375Z,22.00
2018-03-02T04:27:10.915Z,23.20
2018-03-02T04:29:38.435Z,22.90
2018-03-02T04:32:05.947Z,19.63
2018-03-02T04:34:33.497Z,19.73
2018-03-02T04:37:01.062Z,18.77
2018-03-02T04:39:28.579Z,23.23
2018-03-02T04:41:56.094Z,23.63
2018-03-02T04:44:23.615Z,21.33
2018-03-02T04:46:51.176Z,22.83
2018-03-02T04:49:18.750Z,22.60
2018-03-02T04:51:46.270Z,23.83
2018-03-02T04:54:13.825Z,25.10
2018-03-02T04:56:41.392Z,21.70
2018-03-02T04:59:09.002Z,21.53
2018-03-02T05:01:36.549Z,24.30
2018-03-02T05:04:04.043Z,22.23
2018-03-02T05:06:31.599Z,24.03
2018-03-02T05:08:59.147Z,22.60
2018-03-02T05:11:26.654Z,22.13
2018-03-02T05:13:54.172Z,25.63
2018-03-02T05:16:21.685Z,24.80
2018-03-02T05:18:49.223Z,25.20
2018-03-02T05:21:16.722Z,24.33
2018-03-02T05:23:44.221Z,24.37
2018-03-02T05:26:11.735Z,23.40
2018-03-02T05:28:39.273Z,21.10
2018-03-02T05:31:06.762Z,22.60
2018-03-02T05:33:34.300Z,25.63
2018-03-02T05:36:01.826Z,23.13
2018-03-02T05:38:29.808Z,24.80
2018-03-02T05:40:57.550Z,23.80
2018-03-02T05:43:25.183Z,21.60
2018-03-02T05:45:52.706Z,23.43
2018-03-02T05:48:20.214Z,20.97
2018-03-02T05:50:47.952Z,23.53
2018-03-02T05:53:15.759Z,24.63
2018-03-02T05:55:43.797Z,25.00
2018-03-02T05:58:13.316Z,23.20
2018-03-02T06:00:40.914Z,23.27
2018-03-02T06:03:08.522Z,23.00
2018-03-02T06:05:36.073Z,18.23
2018-03-02T06:08:03.949Z,19.03
2018-03-02T06:10:31.635Z,22.87
2018-03-02T06:12:59.302Z,24.83
2018-03-02T06:15:27.074Z,22.20
2018-03-02T06:17:54.809Z,25.23
2018-03-02T06:20:25.012Z,24.17
2018-03-02T06:22:52.968Z,18.77
2018-03-02T06:25:20.826Z,22.30
2018-03-02T06:27:48.428Z,24.33
2018-03-02T06:30:15.937Z,23.53
2018-03-02T06:32:43.640Z,26.63
2018-03-02T06:35:12.137Z,21.00
2018-03-02T06:37:39.682Z,23.27
2018-03-02T06:40:07.397Z,23.40
2018-03-02T06:42:34.947Z,24.40
2018-03-02T06:45:02.490Z,24.53
2018-03-02T06:47:30.096Z,24.53
2018-03-02T06:49:57.683Z,23.53
2018-03-02T06:52:25.348Z,26.53
2018-03-02T06:54:52.905Z,25.50
2018-03-02T06:57:20.713Z,23.40
2018-03-02T06:59:48.295Z,26.17
2018-03-02T07:02:15.804Z,26.80
2018-03-02T07:04:43.360Z,25.43
2018-03-02T07:07:10.903Z,27.80
2018-03-02T07:09:38.536Z,24.90
2018-03-02T07:12:06.097Z,23.13
2018-03-02T07:14:33.746Z,24.53
2018-03-02T07:17:01.407Z,23.83
2018-03-02T07:19:29.126Z,22.23
2018-03-02T07:21:56.684Z,22.33
2018-03-02T07:24:24.321Z,23.63
2018-03-02T07:26:51.878Z,19.57
2018-03-02T07:29:19.376Z,20.97
2018-03-02T07:31:46.985Z,22.63
2018-03-02T07:34:14.592Z,23.40
2018-03-02T07:36:42.099Z,26.87
2018-03-02T07:39:09.641Z,25.80
2018-03-02T07:41:37.142Z,24.73
2018-03-02T07:44:04.657Z,21.43
2018-03-02T07:46:32.222Z,29.13
2018-03-02T07:48:59.740Z,25.00
2018-03-02T07:51:27.312Z,23.27
2018-03-02T07:53:54.832Z,25.70
2018-03-02T07:56:22.332Z,26.40
2018-03-02T07:58:49.876Z,26.07
2018-03-02T08:01:17.408Z,26.67
2018-03-02T08:03:44.921Z,28.83
2018-03-02T08:06:12.436Z,25.57
2018-03-02T08:08:39.983Z,27.17
2018-03-02T08:11:07.500Z,22.10
2018-03-02T08:13:35.026Z,26.90
2018-03-02T08:16:02.556Z,21.47
2018-03-02T08:18:30.074Z,27.20
2018-03-02T08:20:57.609Z,25.87
2018-03-02T08:23:25.107Z,25.67
2018-03-02T08:25:52.587Z,28.60
2018-03-02T08:28:20.108Z,26.77
2018-03-02T08:30:47.616Z,27.70
2018-03-02T08:33:15.163Z,27.17
2018-03-02T08:35:42.765Z,27.73
2018-03-02T08:38:10.270Z,28.93
2018-03-02T08:40:37.815Z,28.23
2018-03-02T08:43:05.412Z,27.80
2018-03-02T08:45:32.982Z,28.23
2018-03-02T08:48:00.531Z,25.10
2018-03-02T08:50:28.064Z,25.80
2018-03-02T08:52:55.658Z,27.17
2018-03-02T08:55:23.186Z,27.67
2018-03-02T08:57:50.901Z,29.03
2018-03-02T09:00:18.464Z,27.00
2018-03-02T09:02:46.577Z,27.10
2018-03-02T09:05:14.128Z,26.63
2018-03-02T09:07:41.656Z,26.17
2018-03-02T09:10:09.205Z,26.47
2018-03-02T09:12:36.763Z,22.20
2018-03-02T09:15:04.287Z,24.23
2018-03-02T09:17:31.849Z,26.17
2018-03-02T09:19:59.401Z,29.13
2018-03-02T09:22:26.900Z,25.33
2018-03-02T09:24:54.409Z,26.00
2018-03-02T09:27:21.965Z,28.27
2018-03-02T09:29:49.507Z,26.33
2018-03-02T09:32:17.021Z,24.13
2018-03-02T09:34:46.884Z,25.40
2018-03-02T09:37:14.418Z,26.27
2018-03-02T09:39:41.922Z,28.27
2018-03-02T09:42:09.412Z,22.87
2018-03-02T09:44:36.932Z,22.53
2018-03-02T09:47:04.491Z,27.03
2018-03-02T09:49:32.106Z,24.80
2018-03-02T09:51:59.664Z,25.00
2018-03-02T09:54:27.194Z,26.70
2018-03-02T09:56:54.733Z,25.17
2018-03-02T09:59:25.331Z,27.00
2018-03-02T10:01:53.441Z,25.03
2018-03-02T10:04:21.727Z,25.77
2018-03-02T10:06:49.268Z,28.07
2018-03-02T10:09:16.776Z,33.42
2018-03-02T10:11:46.009Z,27.27
2018-03-02T10:14:14.835Z,28.37
2018-03-02T10:16:42.478Z,26.27
2018-03-02T10:19:10.656Z,25.83
2018-03-02T10:21:38.169Z,25.77
2018-03-02T10:24:07.083Z,27.00
2018-03-02T10:26:35.201Z,25.50
2018-03-02T10:29:05.222Z,23.90
2018-03-02T10:31:32.754Z,26.03
2018-03-02T10:34:01.327Z,23.83
2018-03-02T10:36:29.000Z,24.43
2018-03-02T10:38:56.507Z,25.40
2018-03-02T10:41:24.888Z,25.40
2018-03-02T10:43:52.408Z,23.90
2018-03-02T10:46:19.901Z,23.60
2018-03-02T10:48:47.436Z,24.37
2018-03-02T10:51:18.284Z,26.73
2018-03-02T10:53:47.676Z,26.40
2018-03-02T10:56:15.231Z,27.63
2018-03-02T10:58:43.711Z,20.87
2018-03-02T11:01:12.860Z,24.90
2018-03-02T11:03:46.199Z,27.27
2018-03-02T11:06:13.839Z,25.77
2018-03-02T11:08:41.354Z,27.27
2018-03-02T11:11:08.876Z,26.30
2018-03-02T11:13:36.428Z,28.13
2018-03-02T11:16:04.194Z,23.33
2018-03-02T11:18:31.708Z,27.60
2018-03-02T11:20:59.214Z,27.10
2018-03-02T11:23:26.762Z,24.10
2018-03-02T11:25:54.290Z,26.50
2018-03-02T11:28:21.782Z,24.73
2018-03-02T11:30:54.507Z,28.37
2018-03-02T11:33:23.352Z,28.33
2018-03-02T11:35:50.842Z,28.80
2018-03-02T11:38:20.455Z,26.93
2018-03-02T11:40:48.996Z,27.43
2018-03-02T11:43:16.528Z,28.67
2018-03-02T11:45:44.080Z,28.60
2018-03-02T11:48:11.623Z,28.50
2018-03-02T11:50:39.138Z,26.67
2018-03-02T11:53:06.661Z,29.70
2018-03-02T11:55:34.176Z,29.50
2018-03-02T11:58:01.683Z,29.00
2018-03-02T12:00:29.486Z,30.70
2018-03-02T12:02:56.991Z,28.43
2018-03-02T12:05:24.620Z,30.13
2018-03-02T12:07:52.339Z,28.80
2018-03-02T12:10:20.334Z,29.17
2018-03-02T12:12:48.114Z,29.37
2018-03-02T12:15:15.720Z,29.90
2018-03-02T12:17:43.398Z,29.50
2018-03-02T12:20:11.198Z,28.40
2018-03-02T12:22:39.254Z,27.07
2018-03-02T12:25:07.051Z,28.13
2018-03-02T12:27:34.822Z,28.90
2018-03-02T12:30:02.583Z,29.53
2018-03-02T12:32:30.440Z,27.90
2018-03-02T12:34:58.248Z,30.57
2018-03-02T12:37:26.682Z,28.03
2018-03-02T12:39:54.509Z,33.93
2018-03-02T12:42:22.392Z,28.27
2018-03-02T12:44:50.234Z,27.53
2018-03-02T12:47:17.957Z,27.77
2018-03-02T12:49:45.809Z,26.50
2018-03-02T12:52:13.441Z,28.83
2018-03-02T12:54:41.377Z,26.53
2018-03-02T12:57:13.708Z,30.70
2018-03-02T12:59:42.300Z,28.43
2018-03-02T13:02:09.973Z,29.83
2018-03-02T13:04:38.542Z,28.63
2018-03-02T13:07:07.091Z,28.17
2018-03-02T13:09:35.755Z,29.47
2018-03-02T13:12:04.172Z,27.50
2018-03-02T13:14:32.768Z,28.40
2018-03-02T13:17:01.941Z,24.47
2018-03-02T13:19:30.092Z,28.17
2018-03-02T13:21:57.913Z,28.90
2018-03-02T13:24:25.697Z,27.20
2018-03-02T13:27:07.268Z,29.43
2018-03-02T13:29:36.067Z,30.27
2018-03-02T13:32:03.930Z,27.10
2018-03-02T13:50:31.189Z,27.33
2018-03-02T13:52:59.166Z,25.57
2018-03-02T13:55:26.949Z,26.83
2018-03-02T13:58:05.435Z,27.00
2018-03-02T14:00:33.070Z,27.97
2018-03-02T14:03:12.716Z,28.33
2018-03-02T14:05:40.325Z,25.33
2018-03-02T14:08:08.096Z,27.30
2018-03-02T14:10:35.682Z,27.27
2018-03-02T14:13:03.252Z,28.43
2018-03-02T14:15:30.768Z,25.80
2018-03-02T14:17:58.342Z,27.33
2018-03-02T14:20:25.867Z,27.90
2018-03-02T14:22:53.385Z,26.93
2018-03-02T14:25:20.913Z,26.50
2018-03-02T14:30:33.934Z,24.93
2018-03-02T14:33:01.461Z,25.93
2018-03-02T14:35:32.224Z,26.17
2018-03-02T14:37:59.754Z,26.10
2018-03-02T14:40:28.281Z,26.83
2018-03-02T14:42:55.779Z,23.40
2018-03-02T14:45:23.422Z,26.60
2018-03-02T14:47:52.328Z,23.97
2018-03-02T14:50:19.846Z,26.17
2018-03-02T14:52:48.944Z,27.23
2018-03-02T14:55:16.461Z,26.37
2018-03-02T14:57:48.370Z,24.83
2018-03-02T15:09:55.920Z,23.57
2018-03-02T15:12:23.417Z,25.87
2018-03-02T15:14:50.962Z,24.57
2018-03-02T15:17:19.405Z,26.77
2018-03-02T15:19:47.593Z,26.23
2018-03-02T15:22:15.232Z,24.10
2018-03-02T15:24:42.840Z,24.70
2018-03-02T15:27:10.411Z,25.87
2018-03-02T15:29:37.967Z,25.00
2018-03-02T15:32:05.646Z,26.93
2018-03-02T15:34:33.445Z,25.77
2018-03-02T15:37:00.938Z,25.80
2018-03-02T15:39:28.472Z,23.57
2018-03-02T15:41:56.046Z,26.10
2018-03-02T15:44:23.586Z,23.07
2018-03-02T15:46:51.101Z,25.17
2018-03-02T15:49:18.711Z,22.47
2018-03-02T15:51:46.326Z,23.40
2018-03-02T15:54:13.880Z,22.53
2018-03-02T15:56:41.460Z,24.23
2018-03-02T15:59:08.974Z,25.17
2018-03-02T16:01:36.473Z,23.27
2018-03-02T16:04:04.054Z,24.97
2018-03-02T16:06:32.410Z,27.60
2018-03-02T16:08:59.961Z,22.93
2018-03-02T16:11:27.492Z,23.10
2018-03-02T16:13:55.036Z,21.83
2018-03-02T16:16:22.589Z,24.70
2018-03-02T16:18:50.108Z,23.60
2018-03-02T16:21:17.744Z,21.17
2018-03-02T16:23:45.609Z,22.63
2018-03-02T16:26:13.177Z,23.47
2018-03-02T16:28:40.704Z,25.27
2018-03-02T16:31:08.512Z,25.80
2018-03-02T16:33:36.293Z,24.40
2018-03-02T16:36:04.171Z,24.80
2018-03-02T16:38:31.943Z,24.00
2018-03-02T16:40:59.851Z,26.27
2018-03-02T16:43:27.441Z,24.83
2018-03-02T16:45:55.173Z,25.83
2018-03-02T16:48:23.672Z,21.57
2018-03-02T16:50:51.419Z,23.03
2018-03-02T16:53:20.052Z,24.23
2018-03-02T16:55:47.793Z,22.83
2018-03-02T16:58:15.644Z,19.90
2018-03-02T17:00:43.716Z,21.17
2018-03-02T17:03:11.835Z,23.03
2018-03-02T17:05:39.811Z,22.77
2018-03-02T17:08:07.623Z,22.23
2018-03-02T17:10:35.218Z,23.33
2018-03-02T17:13:03.785Z,23.47
2018-03-02T17:15:31.708Z,23.83
2018-03-02T17:17:59.611Z,22.10
2018-03-02T17:20:27.788Z,23.30
2018-03-02T17:22:55.635Z,22.83
2018-03-02T17:25:23.518Z,23.43
2018-03-02T17:27:51.712Z,20.40
2018-03-02T17:30:19.539Z,22.30
2018-03-02T17:32:47.873Z,22.37
2018-03-02T17:35:15.963Z,22.97
2018-03-02T17:37:44.319Z,22.43
2018-03-02T17:40:12.165Z,23.03
2018-03-02T17:42:39.955Z,21.50
2018-03-02T17:45:07.805Z,23.20
2018-03-02T17:47:35.562Z,23.60
2018-03-02T17:50:03.426Z,23.70
2018-03-02T17:52:31.312Z,26.23
2018-03-02T17:54:59.182Z,24.03
2018-03-02T17:57:26.924Z,28.07
2018-03-02T17:59:54.737Z,33.43
2018-03-02T18:02:25.556Z,47.30
2018-03-02T18:04:53.127Z,48.77
2018-03-02T18:07:20.670Z,44.20
2018-03-02T18:09:48.181Z,47.80
2018-03-02T18:12:15.686Z,43.63
2018-03-02T18:14:43.666Z,36.50
2018-03-02T18:17:11.413Z,37.83
2018-03-02T18:19:39.193Z,34.50
2018-03-02T18:22:07.006Z,34.00
2018-03-02T18:24:35.350Z,34.23
2018-03-02T18:27:03.085Z,33.00
2018-03-02T18:29:30.889Z,31.17
2018-03-02T18:31:58.667Z,33.97
2018-03-02T18:34:26.487Z,33.90
2018-03-02T18:36:54.245Z,37.97
2018-03-02T18:39:22.006Z,36.07
2018-03-02T18:41:49.759Z,32.43
2018-03-02T18:44:17.489Z,29.10
2018-03-02T18:46:45.386Z,28.00
2018-03-02T18:49:13.240Z,25.93
2018-03-02T18:51:41.114Z,31.13
2018-03-02T18:54:08.936Z,21.83
2018-03-02T18:56:36.856Z,24.67
2018-03-02T18:59:04.668Z,25.00
2018-03-02T19:01:38.116Z,28.07
2018-03-02T19:04:06.090Z,25.00
2018-03-02T19:06:34.798Z,23.57
2018-03-02T19:09:02.657Z,27.40
2018-03-02T19:11:30.431Z,23.40
2018-03-02T19:13:58.155Z,23.33
2018-03-02T19:16:26.769Z,17.93
2018-03-02T19:18:54.613Z,23.47
2018-03-02T19:21:22.411Z,29.93
2018-03-02T19:23:50.139Z,32.83
2018-03-02T19:26:17.903Z,33.97
2018-03-02T19:28:45.823Z,29.23
2018-03-02T19:31:15.497Z,28.10
2018-03-02T19:33:43.513Z,25.60
2018-03-02T19:36:15.143Z,25.20
2018-03-02T19:38:44.560Z,24.83
2018-03-02T19:41:13.761Z,25.77
2018-03-02T19:43:41.700Z,22.30
2018-03-02T19:46:09.546Z,25.20
2018-03-02T19:48:37.503Z,24.33
2018-03-02T19:51:05.230Z,28.90
2018-03-02T19:53:33.035Z,28.33
2018-03-02T19:56:00.805Z,24.07
2018-03-02T19:58:28.560Z,24.13
2018-03-02T20:00:56.122Z,20.90
2018-03-02T20:03:23.714Z,21.63
2018-03-02T20:05:51.548Z,22.57
2018-03-02T20:08:19.245Z,20.87
2018-03-02T20:10:46.877Z,18.37
2018-03-02T20:13:14.581Z,22.20
2018-03-02T20:15:42.330Z,21.07
2018-03-02T20:18:10.039Z,21.60
2018-03-02T20:20:37.597Z,22.57
2018-03-02T20:23:05.117Z,19.60
2018-03-02T20:25:32.728Z,20.70
2018-03-02T20:28:00.433Z,20.73
2018-03-02T20:30:28.086Z,20.93
2018-03-02T20:32:55.816Z,21.53
2018-03-02T20:35:23.503Z,21.53
2018-03-02T20:37:52.541Z,21.97
2018-03-02T20:40:20.381Z,17.53
2018-03-02T20:42:48.190Z,21.57
2018-03-02T20:45:15.874Z,21.73
2018-03-02T20:47:43.727Z,21.17
2018-03-02T20:50:11.435Z,22.90
2018-03-02T20:52:39.312Z,20.70
2018-03-02T20:55:07.320Z,19.93
2018-03-02T20:57:34.962Z,20.97
2018-03-02T21:00:03.139Z,20.03
2018-03-02T21:02:30.855Z,19.80
2018-03-02T21:04:59.488Z,21.10
2018-03-02T21:07:27.428Z,18.73
2018-03-02T21:09:55.540Z,18.03
2018-03-02T21:12:23.153Z,20.17
2018-03-02T21:14:50.657Z,20.07
2018-03-02T21:17:18.161Z,22.00
2018-03-02T21:19:45.759Z,21.80
2018-03-02T21:22:13.837Z,22.73
2018-03-02T21:24:41.445Z,20.73
2018-03-02T21:27:09.127Z,21.03
2018-03-02T21:29:36.896Z,20.23
2018-03-02T21:32:04.770Z,20.03
2018-03-02T21:34:33.019Z,21.40
2018-03-02T21:37:00.883Z,22.17
2018-03-02T21:39:28.905Z,22.13
2018-03-02T21:41:57.290Z,21.43
2018-03-02T21:44:25.569Z,21.23
2018-03-02T21:46:53.872Z,21.57
2018-03-02T21:49:21.593Z,20.17
2018-03-02T21:51:49.488Z,21.60
2018-03-02T21:54:17.764Z,23.80
2018-03-02T21:56:45.569Z,22.13
2018-03-02T21:59:13.483Z,21.67
2018-03-02T22:01:41.486Z,22.13
2018-03-02T22:04:09.353Z,23.23
2018-03-02T22:06:37.226Z,21.90
2018-03-02T22:09:05.049Z,22.53
2018-03-02T22:11:32.829Z,21.87
2018-03-02T22:14:00.708Z,23.43
2018-03-02T22:16:29.130Z,21.83
2018-03-02T22:18:56.918Z,22.03
2018-03-02T22:21:24.780Z,24.13
2018-03-02T22:23:52.862Z,21.97
2018-03-02T22:26:20.650Z,21.97
2018-03-02T22:28:48.612Z,22.07
2018-03-02T22:31:16.636Z,22.80
2018-03-02T22:33:44.464Z,20.87
2018-03-02T22:36:13.210Z,22.07
2018-03-02T22:38:40.893Z,23.77
2018-03-02T22:41:08.765Z,23.57
2018-03-02T22:43:36.678Z,22.63
2018-03-02T22:46:04.594Z,23.20
2018-03-02T22:48:32.547Z,20.57
2018-03-02T22:51:00.175Z,21.87
2018-03-02T22:53:28.115Z,22.73
2018-03-02T22:55:55.892Z,21.47
2018-03-02T22:58:23.688Z,22.77
2018-03-02T23:00:51.449Z,21.53
2018-03-02T23:03:19.438Z,23.30
2018-03-02T23:05:47.316Z,23.83
2018-03-02T23:08:15.100Z,21.73
2018-03-02T23:10:42.910Z,22.30
2018-03-02T23:13:10.565Z,23.13
2018-03-02T23:15:38.417Z,23.50
2018-03-02T23:18:06.036Z,21.80
2018-03-02T23:20:33.807Z,21.33
2018-03-02T23:23:01.408Z,22.43
2018-03-02T23:25:28.961Z,23.47
2018-03-02T23:27:56.509Z,21.63
2018-03-02T23:30:24.137Z,22.87
2018-03-02T23:32:51.665Z,21.37
2018-03-02T23:35:19.182Z,23.50
2018-03-02T23:37:46.736Z,20.63
2018-03-02T23:40:14.271Z,22.23
2018-03-02T23:42:41.786Z,21.03
2018-03-02T23:45:09.282Z,21.90
2018-03-02T23:47:36.919Z,22.20
2018-03-02T23:50:04.509Z,22.27
2018-03-02T23:52:32.002Z,21.47
2018-03-02T23:54:59.545Z,21.00
2018-03-02T23:57:27.062Z,22.37
2018-03-02T23:59:54.591Z,21.53
